Time;durP1;ratioP1;P1;durP2;ratioP2;P2;SDS_P1;SDS_P2;PMS_P1;PMS_P2;Temp;Humidity;BMP_temperature;BMP_pressure;BME280_temperature;BME280_humidity;BME280_pressure;Samples;Min_cycle;Max_cycle;Signal;HPM_P1;HPM_P2
2022/04/18 00:01:04;;;;;;;9.13;7.33;;;;;;;;;;5053619;28;20202;-74
2022/04/18 00:03:34;;;;;;;8.13;7.07;;;;;;;;;;5054525;28;20203;-75
2022/04/18 00:06:03;;;;;;;7.77;6.87;;;;;;;;;;5051467;28;20253;-75
2022/04/18 00:08:31;;;;;;;7.83;6.80;;;;;;;;;;5050804;28;20234;-75
2022/04/18 00:11:00;;;;;;;9.07;7.03;;;;;;;;;;5054500;28;20227;-75
2022/04/18 00:13:29;;;;;;;8.43;7.37;;;;;;;;;;5052616;28;20264;-75
2022/04/18 00:15:57;;;;;;;8.37;6.53;;;;;;;;;;5052491;28;20562;-76
2022/04/18 00:18:26;;;;;;;9.03;7.10;;;;;;;;;;5052036;28;20230;-75
2022/04/18 00:20:56;;;;;;;6.73;6.10;;;;;;;;;;5045687;28;20660;-75
2022/04/18 00:23:24;;;;;;;8.10;6.70;;;;;;;;;;5051623;28;20199;-76
2022/04/18 00:25:52;;;;;;;9.40;7.67;;;;;;;;;;5052877;28;20685;-76
2022/04/18 00:28:22;;;;;;;8.90;7.23;;;;;;;;;;5052498;28;20292;-75
2022/04/18 00:30:51;;;;;;;8.07;6.80;;;;;;;;;;5053621;28;20229;-75
2022/04/18 00:33:20;;;;;;;8.07;6.57;;;;;;;;;;5051830;28;20199;-75
2022/04/18 00:35:48;;;;;;;8.07;6.77;;;;;;;;;;5048708;28;20207;-75
2022/04/18 00:38:18;;;;;;;9.03;7.27;;;;;;;;;;5049872;28;20812;-74
2022/04/18 00:40:47;;;;;;;8.87;7.13;;;;;;;;;;5049884;28;20201;-75
2022/04/18 00:43:15;;;;;;;9.20;7.27;;;;;;;;;;5049069;28;20222;-75
2022/04/18 00:45:44;;;;;;;9.10;7.13;;;;;;;;;;5050940;28;20230;-75
2022/04/18 00:48:12;;;;;;;7.87;6.80;;;;;;;;;;5047039;28;20775;-75
2022/04/18 00:50:41;;;;;;;8.80;7.40;;;;;;;;;;5051458;28;20213;-74
2022/04/18 00:53:09;;;;;;;9.87;7.63;;;;;;;;;;5052771;28;20595;-75
2022/04/18 00:55:39;;;;;;;9.77;8.17;;;;;;;;;;5052998;28;20268;-75
2022/04/18 00:58:08;;;;;;;10.10;8.03;;;;;;;;;;5053139;28;20283;-75
2022/04/18 01:00:36;;;;;;;11.17;8.87;;;;;;;;;;5052836;28;20234;-75
2022/04/18 01:03:04;;;;;;;11.23;8.40;;;;;;;;;;5053087;28;20252;-75
2022/04/18 01:05:33;;;;;;;9.23;7.43;;;;;;;;;;5052377;28;20207;-76
2022/04/18 01:08:04;;;;;;;9.03;6.93;;;;;;;;;;5051093;28;20233;-75
2022/04/18 01:10:32;;;;;;;8.77;7.27;;;;;;;;;;5041246;28;20834;-75
2022/04/18 01:13:02;;;;;;;9.73;7.17;;;;;;;;;;5044334;28;20296;-75
2022/04/18 01:15:31;;;;;;;9.83;8.20;;;;;;;;;;5047836;28;20641;-76
2022/04/18 01:18:00;;;;;;;10.07;7.60;;;;;;;;;;5039166;28;20233;-74
2022/04/18 01:20:34;;;;;;;9.07;7.87;;;;;;;;;;5041792;28;20203;-75
2022/04/18 01:23:07;;;;;;;8.73;7.83;;;;;;;;;;5033550;28;20245;-75
2022/04/18 01:31:09;;;;;;;9.83;7.90;;;;;;;;;;5044044;28;20208;-75
2022/04/18 01:33:38;;;;;;;9.10;6.93;;;;;;;;;;5050528;28;20198;-75
2022/04/18 01:36:07;;;;;;;8.57;7.30;;;;;;;;;;5048790;28;20210;-76
2022/04/18 01:38:37;;;;;;;8.87;7.10;;;;;;;;;;5048623;28;20288;-75
2022/04/18 01:41:05;;;;;;;9.17;7.00;;;;;;;;;;5047502;28;20585;-75
2022/04/18 01:43:34;;;;;;;9.73;7.23;;;;;;;;;;5048640;28;20211;-75
2022/04/18 01:46:02;;;;;;;9.40;7.70;;;;;;;;;;5050097;28;20210;-75
2022/04/18 01:48:31;;;;;;;9.93;7.47;;;;;;;;;;5043240;28;20274;-75
2022/04/18 01:50:59;;;;;;;8.63;7.23;;;;;;;;;;5049531;28;20225;-75
2022/04/18 01:53:30;;;;;;;10.10;7.60;;;;;;;;;;5052783;28;20218;-75
2022/04/18 01:56:00;;;;;;;10.43;7.73;;;;;;;;;;5052466;28;20213;-75
2022/04/18 01:58:29;;;;;;;9.30;7.50;;;;;;;;;;5051994;28;20224;-75
2022/04/18 02:00:57;;;;;;;9.70;8.43;;;;;;;;;;5051903;28;20210;-74
2022/04/18 02:03:26;;;;;;;9.47;7.50;;;;;;;;;;5053531;28;20256;-75
2022/04/18 02:05:55;;;;;;;10.07;7.67;;;;;;;;;;5053661;28;20248;-75
2022/04/18 02:08:24;;;;;;;10.07;7.47;;;;;;;;;;5052698;28;20225;-74
2022/04/18 02:10:52;;;;;;;9.27;7.67;;;;;;;;;;5048279;28;20295;-75
2022/04/18 02:13:22;;;;;;;9.33;7.23;;;;;;;;;;5035087;28;20226;-75
2022/04/18 02:15:50;;;;;;;9.60;7.40;;;;;;;;;;5049537;28;20202;-75
2022/04/18 02:18:19;;;;;;;9.43;7.87;;;;;;;;;;5044938;28;20737;-74
2022/04/18 02:20:47;;;;;;;8.53;7.20;;;;;;;;;;5045553;28;20202;-74
2022/04/18 02:23:16;;;;;;;9.07;7.23;;;;;;;;;;5054075;28;20200;-75
2022/04/18 02:25:44;;;;;;;8.70;7.70;;;;;;;;;;5043122;28;20217;-75
2022/04/18 02:28:12;;;;;;;8.47;7.23;;;;;;;;;;5052339;28;20684;-75
2022/04/18 02:30:42;;;;;;;10.47;7.47;;;;;;;;;;5045430;28;20202;-75
2022/04/18 02:33:10;;;;;;;9.13;7.67;;;;;;;;;;5053697;28;20287;-75
2022/04/18 02:35:39;;;;;;;10.63;7.87;;;;;;;;;;5054538;28;20206;-75
2022/04/18 02:38:07;;;;;;;9.73;7.77;;;;;;;;;;5052973;28;20226;-74
2022/04/18 02:40:36;;;;;;;11.80;7.43;;;;;;;;;;5048047;28;20206;-75
2022/04/18 02:43:05;;;;;;;9.70;7.80;;;;;;;;;;5055417;28;20209;-75
2022/04/18 02:45:34;;;;;;;8.53;7.03;;;;;;;;;;5053969;28;20260;-75
2022/04/18 02:48:04;;;;;;;9.33;7.27;;;;;;;;;;5052993;28;20226;-76
2022/04/18 02:50:33;;;;;;;7.57;6.77;;;;;;;;;;5054040;28;20213;-75
2022/04/18 02:53:02;;;;;;;9.53;7.10;;;;;;;;;;5054258;28;20237;-74
2022/04/18 02:55:30;;;;;;;9.83;7.93;;;;;;;;;;5050980;28;20193;-75
2022/04/18 02:57:59;;;;;;;9.30;7.53;;;;;;;;;;5049144;28;20227;-75
2022/04/18 03:00:27;;;;;;;10.83;9.10;;;;;;;;;;5054262;28;20251;-75
2022/04/18 03:02:56;;;;;;;9.03;7.80;;;;;;;;;;5053309;28;20561;-75
2022/04/18 03:05:26;;;;;;;9.90;8.07;;;;;;;;;;5054224;28;20241;-75
2022/04/18 03:07:54;;;;;;;9.20;7.87;;;;;;;;;;5055191;28;20228;-75
2022/04/18 03:13:05;;;;;;;11.27;8.40;;;;;;;;;;5051741;28;20223;-76
2022/04/18 03:15:34;;;;;;;11.17;8.47;;;;;;;;;;5052735;28;20210;-75
2022/04/18 03:18:02;;;;;;;9.47;8.30;;;;;;;;;;5052843;28;20302;-75
2022/04/18 03:20:32;;;;;;;12.27;9.10;;;;;;;;;;5055089;28;20205;-75
2022/04/18 03:23:01;;;;;;;12.70;8.27;;;;;;;;;;5054531;28;20217;-75
2022/04/18 03:25:29;;;;;;;10.07;7.67;;;;;;;;;;5053625;28;20212;-75
2022/04/18 03:27:58;;;;;;;10.20;7.53;;;;;;;;;;5054414;28;20219;-75
2022/04/18 03:30:26;;;;;;;10.90;8.67;;;;;;;;;;5054431;28;20208;-75
2022/04/18 03:32:54;;;;;;;13.53;8.80;;;;;;;;;;5054328;28;20227;-75
2022/04/18 03:35:23;;;;;;;12.00;8.67;;;;;;;;;;5053138;28;20215;-74
2022/04/18 03:40:39;;;;;;;10.87;9.07;;;;;;;;;;5054472;28;20199;-75
2022/04/18 03:43:07;;;;;;;10.73;9.00;;;;;;;;;;5054466;28;20265;-75
2022/04/18 03:45:36;;;;;;;12.83;9.20;;;;;;;;;;5052903;28;20203;-75
2022/04/18 03:48:04;;;;;;;11.80;8.93;;;;;;;;;;5043288;28;20229;-75
2022/04/18 03:50:33;;;;;;;10.20;8.40;;;;;;;;;;5042840;28;20606;-75
2022/04/18 03:53:05;;;;;;;11.50;9.17;;;;;;;;;;5046026;28;20224;-75
2022/04/18 03:55:34;;;;;;;11.30;9.30;;;;;;;;;;5052865;28;20211;-75
2022/04/18 03:58:02;;;;;;;11.80;9.20;;;;;;;;;;5053152;28;20692;-75
2022/04/18 04:00:30;;;;;;;12.03;8.93;;;;;;;;;;5049481;28;20208;-75
2022/04/18 04:02:59;;;;;;;11.73;9.63;;;;;;;;;;5053191;28;20203;-75
2022/04/18 04:05:27;;;;;;;13.63;10.00;;;;;;;;;;5052556;28;20640;-75
2022/04/18 04:07:56;;;;;;;12.50;9.67;;;;;;;;;;5054766;28;20308;-75
2022/04/18 04:10:26;;;;;;;13.17;9.53;;;;;;;;;;5054186;28;20257;-75
2022/04/18 04:12:54;;;;;;;10.23;8.37;;;;;;;;;;5052190;28;20223;-75
2022/04/18 04:15:23;;;;;;;12.23;9.37;;;;;;;;;;5049601;28;20203;-75
2022/04/18 04:17:53;;;;;;;12.03;8.10;;;;;;;;;;5042183;28;20571;-75
2022/04/18 04:20:22;;;;;;;10.50;8.77;;;;;;;;;;5048876;28;20202;-75
2022/04/18 04:22:51;;;;;;;10.57;9.47;;;;;;;;;;5054183;28;20208;-75
2022/04/18 04:25:20;;;;;;;11.73;9.27;;;;;;;;;;5053466;28;20595;-76
2022/04/18 04:27:50;;;;;;;14.80;9.00;;;;;;;;;;5047465;28;20289;-75
2022/04/18 04:30:18;;;;;;;11.90;8.90;;;;;;;;;;5052767;28;20705;-75
2022/04/18 04:32:48;;;;;;;11.10;8.93;;;;;;;;;;5053763;28;20207;-75
2022/04/18 04:35:16;;;;;;;10.17;8.70;;;;;;;;;;5052978;28;20207;-75
2022/04/18 04:37:45;;;;;;;10.90;8.80;;;;;;;;;;5050005;28;20281;-75
2022/04/18 04:40:14;;;;;;;10.60;8.63;;;;;;;;;;5051316;28;20571;-75
2022/04/18 04:42:42;;;;;;;12.67;8.37;;;;;;;;;;5050952;28;20219;-76
2022/04/18 04:45:13;;;;;;;11.87;9.83;;;;;;;;;;5052108;28;20260;-76
2022/04/18 04:47:43;;;;;;;13.73;10.40;;;;;;;;;;5050534;28;20227;-75
2022/04/18 04:50:11;;;;;;;12.90;10.70;;;;;;;;;;5051829;28;20242;-75
2022/04/18 04:52:40;;;;;;;12.63;10.20;;;;;;;;;;5044794;28;20214;-75
2022/04/18 04:55:13;;;;;;;12.87;10.40;;;;;;;;;;5052703;28;20593;-76
2022/04/18 04:57:42;;;;;;;12.50;9.60;;;;;;;;;;5046451;28;20227;-75
2022/04/18 05:00:10;;;;;;;11.20;9.80;;;;;;;;;;5039289;28;20207;-75
2022/04/18 05:02:40;;;;;;;10.23;9.13;;;;;;;;;;5042533;28;20617;-75
2022/04/18 05:05:09;;;;;;;13.13;10.00;;;;;;;;;;5043187;28;20200;-75
2022/04/18 05:07:38;;;;;;;11.87;9.53;;;;;;;;;;5045101;28;20223;-75
2022/04/18 05:10:07;;;;;;;12.60;9.27;;;;;;;;;;5053885;28;20822;-75
2022/04/18 05:12:35;;;;;;;11.17;8.93;;;;;;;;;;5052861;28;20740;-75
2022/04/18 05:15:04;;;;;;;11.37;9.63;;;;;;;;;;5052709;28;20231;-75
2022/04/18 05:17:32;;;;;;;9.70;8.17;;;;;;;;;;5050259;28;20220;-75
2022/04/18 05:20:04;;;;;;;10.17;8.50;;;;;;;;;;5052538;28;20214;-75
2022/04/18 05:22:33;;;;;;;12.67;9.87;;;;;;;;;;5052400;28;20289;-75
2022/04/18 05:25:01;;;;;;;13.07;9.43;;;;;;;;;;5052344;28;20214;-75
2022/04/18 05:27:30;;;;;;;12.97;9.83;;;;;;;;;;5045651;28;20306;-75
2022/04/18 05:29:59;;;;;;;12.57;9.77;;;;;;;;;;5051375;28;20253;-75
2022/04/18 05:32:27;;;;;;;12.73;9.60;;;;;;;;;;5051466;28;20294;-75
2022/04/18 05:34:56;;;;;;;11.07;9.97;;;;;;;;;;5051826;28;20211;-75
2022/04/18 05:37:26;;;;;;;13.73;10.50;;;;;;;;;;5051529;28;20223;-75
2022/04/18 05:39:54;;;;;;;13.53;9.97;;;;;;;;;;5051455;28;20653;-75
2022/04/18 05:42:24;;;;;;;12.17;9.80;;;;;;;;;;5048552;28;20206;-75
2022/04/18 05:44:52;;;;;;;12.40;9.47;;;;;;;;;;5050486;28;20586;-75
2022/04/18 05:47:22;;;;;;;12.90;9.60;;;;;;;;;;5047400;28;20224;-75
2022/04/18 05:49:50;;;;;;;11.40;9.53;;;;;;;;;;5050089;28;20270;-76
2022/04/18 05:52:19;;;;;;;11.03;9.37;;;;;;;;;;5051974;28;20206;-75
2022/04/18 05:54:49;;;;;;;13.23;9.33;;;;;;;;;;5050537;28;20234;-76
2022/04/18 05:57:17;;;;;;;11.50;9.13;;;;;;;;;;5051513;28;20788;-75
2022/04/18 05:59:46;;;;;;;11.93;9.70;;;;;;;;;;5050280;28;20209;-75
2022/04/18 06:02:14;;;;;;;11.17;9.17;;;;;;;;;;5050470;28;20214;-76
2022/04/18 06:04:43;;;;;;;10.90;9.17;;;;;;;;;;5051746;28;20206;-76
2022/04/18 06:07:11;;;;;;;10.53;8.90;;;;;;;;;;5037318;28;20365;-75
2022/04/18 06:09:40;;;;;;;13.07;9.13;;;;;;;;;;5045017;28;20263;-75
2022/04/18 06:12:20;;;;;;;11.27;9.20;;;;;;;;;;5045798;28;20203;-75
2022/04/18 06:14:48;;;;;;;10.30;8.33;;;;;;;;;;5036037;28;20227;-75
2022/04/18 06:17:17;;;;;;;10.27;8.03;;;;;;;;;;5042427;28;20220;-75
2022/04/18 06:19:45;;;;;;;9.77;7.77;;;;;;;;;;5039966;28;21195;-75
2022/04/18 06:22:13;;;;;;;10.53;8.20;;;;;;;;;;5047122;28;20199;-75
2022/04/18 06:24:43;;;;;;;9.37;7.40;;;;;;;;;;5042079;28;20203;-74
2022/04/18 06:27:11;;;;;;;9.23;7.73;;;;;;;;;;5046205;28;20224;-76
2022/04/18 06:29:41;;;;;;;9.17;7.40;;;;;;;;;;5050183;28;20257;-75
2022/04/18 06:32:10;;;;;;;9.10;7.63;;;;;;;;;;5050015;28;20237;-75
2022/04/18 06:34:46;;;;;;;8.67;7.27;;;;;;;;;;5035423;28;20223;-75
2022/04/18 06:37:16;;;;;;;9.57;7.30;;;;;;;;;;5048261;28;20223;-76
2022/04/18 06:39:44;;;;;;;8.67;7.10;;;;;;;;;;5053803;28;20635;-75
2022/04/18 06:42:12;;;;;;;8.87;7.27;;;;;;;;;;5051102;28;20211;-76
2022/04/18 06:44:42;;;;;;;9.10;7.10;;;;;;;;;;5052251;28;20206;-75
2022/04/18 06:47:11;;;;;;;8.53;7.23;;;;;;;;;;5052147;28;20399;-75
2022/04/18 06:49:40;;;;;;;8.67;7.07;;;;;;;;;;5054341;28;20264;-75
2022/04/18 06:52:09;;;;;;;7.20;6.50;;;;;;;;;;5050085;28;20605;-75
2022/04/18 06:54:39;;;;;;;6.73;5.80;;;;;;;;;;5046567;28;20218;-75
2022/04/18 06:57:07;;;;;;;7.50;5.70;;;;;;;;;;5052620;28;20222;-76
2022/04/18 06:59:36;;;;;;;7.97;5.87;;;;;;;;;;5053360;28;20204;-76
2022/04/18 07:02:07;;;;;;;7.30;5.97;;;;;;;;;;5052424;28;20199;-76
2022/04/18 07:04:36;;;;;;;6.97;5.50;;;;;;;;;;5054498;28;20195;-76
2022/04/18 07:07:09;;;;;;;6.07;4.87;;;;;;;;;;5052029;28;20219;-75
2022/04/18 07:09:38;;;;;;;8.40;5.23;;;;;;;;;;5051381;28;20216;-74
2022/04/18 07:12:06;;;;;;;6.33;5.07;;;;;;;;;;5050586;28;20204;-75
2022/04/18 07:14:36;;;;;;;5.70;5.10;;;;;;;;;;5050158;28;20223;-76
2022/04/18 07:17:07;;;;;;;5.80;4.70;;;;;;;;;;5050731;28;20292;-75
2022/04/18 07:19:36;;;;;;;5.30;4.50;;;;;;;;;;5048628;28;20207;-75
2022/04/18 07:22:04;;;;;;;6.67;5.10;;;;;;;;;;5049791;28;20206;-75
2022/04/18 07:24:33;;;;;;;5.10;4.27;;;;;;;;;;5035641;28;20683;-76
2022/04/18 07:27:01;;;;;;;5.10;4.17;;;;;;;;;;5051068;28;20726;-75
2022/04/18 07:29:32;;;;;;;5.33;4.00;;;;;;;;;;5050508;28;20918;-75
2022/04/18 07:32:01;;;;;;;5.37;3.50;;;;;;;;;;5049941;28;20543;-76
2022/04/18 07:34:33;;;;;;;5.97;3.50;;;;;;;;;;5049214;28;20222;-75
2022/04/18 07:37:01;;;;;;;4.77;3.30;;;;;;;;;;5048639;28;20230;-76
2022/04/18 07:39:29;;;;;;;4.63;3.63;;;;;;;;;;5048894;28;20207;-76
2022/04/18 07:41:58;;;;;;;4.63;3.47;;;;;;;;;;5046393;28;20218;-76
2022/04/18 07:44:26;;;;;;;4.03;3.20;;;;;;;;;;5050250;28;20280;-75
2022/04/18 07:46:55;;;;;;;5.07;3.50;;;;;;;;;;5045681;28;20768;-75
2022/04/18 07:49:23;;;;;;;3.87;3.33;;;;;;;;;;5048456;28;20253;-76
2022/04/18 07:51:54;;;;;;;3.50;3.20;;;;;;;;;;5049752;28;20219;-76
2022/04/18 07:54:23;;;;;;;4.20;3.30;;;;;;;;;;5050287;28;20207;-75
2022/04/18 07:56:52;;;;;;;3.93;2.93;;;;;;;;;;5049435;28;20378;-75
2022/04/18 07:59:22;;;;;;;3.77;3.37;;;;;;;;;;5041939;28;20203;-76
2022/04/18 08:01:50;;;;;;;3.87;3.40;;;;;;;;;;5050508;28;20215;-75
2022/04/18 08:04:19;;;;;;;3.47;3.13;;;;;;;;;;5050885;28;20195;-75
2022/04/18 08:06:47;;;;;;;3.90;3.50;;;;;;;;;;5041915;28;20222;-76
2022/04/18 08:09:18;;;;;;;4.43;3.73;;;;;;;;;;5050108;28;20290;-76
2022/04/18 08:11:46;;;;;;;4.70;3.67;;;;;;;;;;5049639;28;20237;-75
2022/04/18 08:14:14;;;;;;;5.03;3.53;;;;;;;;;;5051223;28;20278;-76
2022/04/18 08:16:43;;;;;;;4.43;3.70;;;;;;;;;;5050234;28;20253;-76
2022/04/18 08:19:12;;;;;;;4.53;3.60;;;;;;;;;;5048794;28;20199;-75
2022/04/18 08:21:41;;;;;;;4.73;3.40;;;;;;;;;;5043505;28;20261;-76
2022/04/18 08:24:09;;;;;;;4.57;2.87;;;;;;;;;;5048385;28;20211;-75
2022/04/18 08:26:40;;;;;;;3.30;3.00;;;;;;;;;;5044057;28;20203;-76
2022/04/18 08:29:08;;;;;;;4.00;3.60;;;;;;;;;;5046240;28;20229;-76
2022/04/18 08:31:38;;;;;;;3.10;2.77;;;;;;;;;;5043548;28;20268;-76
2022/04/18 08:34:12;;;;;;;3.20;2.90;;;;;;;;;;5044063;28;20206;-76
2022/04/18 08:36:41;;;;;;;2.90;2.60;;;;;;;;;;5048777;28;20218;-76
2022/04/18 08:39:11;;;;;;;3.50;2.60;;;;;;;;;;5044099;28;20199;-75
2022/04/18 08:41:44;;;;;;;3.00;2.63;;;;;;;;;;5049297;28;20233;-76
2022/04/18 08:44:13;;;;;;;3.33;2.83;;;;;;;;;;5052297;28;20202;-76
2022/04/18 08:46:43;;;;;;;3.53;2.10;;;;;;;;;;5049928;28;20227;-75
2022/04/18 08:55:00;;;;;;;1.97;1.70;;;;;;;;;;4991913;28;20660;-75
2022/04/18 08:57:31;;;;;;;2.03;1.67;;;;;;;;;;4987106;28;20221;-75
2022/04/18 08:59:59;;;;;;;4.50;2.10;;;;;;;;;;5017632;28;20257;-76
2022/04/18 09:02:28;;;;;;;2.00;1.60;;;;;;;;;;5047970;28;20210;-75
2022/04/18 09:04:57;;;;;;;2.33;1.60;;;;;;;;;;5043571;28;20196;-76
2022/04/18 09:07:25;;;;;;;2.30;1.70;;;;;;;;;;5042024;28;20261;-76
2022/04/18 09:09:55;;;;;;;1.92;1.73;;;;;;;;;;5049214;28;20211;-75
2022/04/18 09:12:24;;;;;;;2.05;1.77;;;;;;;;;;5047018;28;20260;-76
2022/04/18 09:14:58;;;;;;;2.72;1.77;;;;;;;;;;5050242;28;20207;-75
2022/04/18 09:17:30;;;;;;;2.60;1.77;;;;;;;;;;5043705;28;20760;-76
2022/04/18 09:20:05;;;;;;;2.20;1.65;;;;;;;;;;5033482;28;20207;-76
2022/04/18 09:22:41;;;;;;;2.00;1.80;;;;;;;;;;5051164;28;20687;-75
2022/04/18 09:25:16;;;;;;;3.35;2.00;;;;;;;;;;5052536;28;20198;-77
2022/04/18 09:27:49;;;;;;;3.60;1.80;;;;;;;;;;5042775;28;20239;-76
2022/04/18 09:30:19;;;;;;;2.95;1.73;;;;;;;;;;5047527;28;20677;-76
2022/04/18 09:32:56;;;;;;;2.05;1.85;;;;;;;;;;5040047;28;20203;-76
2022/04/18 09:35:25;;;;;;;2.35;1.75;;;;;;;;;;5044532;28;20610;-75
2022/04/18 09:37:54;;;;;;;2.67;1.75;;;;;;;;;;5042684;28;20220;-76
2022/04/18 09:40:23;;;;;;;3.30;2.00;;;;;;;;;;5042173;28;20192;-76
2022/04/18 09:42:53;;;;;;;2.20;2.00;;;;;;;;;;5049115;28;20211;-76
2022/04/18 09:45:23;;;;;;;2.38;2.00;;;;;;;;;;5035996;28;20287;-76
2022/04/18 09:47:54;;;;;;;2.28;2.08;;;;;;;;;;5044717;28;20223;-76
2022/04/18 09:53:17;;;;;;;3.08;2.10;;;;;;;;;;5049096;28;20203;-76
2022/04/18 09:55:47;;;;;;;2.58;1.77;;;;;;;;;;5050736;28;20219;-75
2022/04/18 09:58:15;;;;;;;3.88;2.33;;;;;;;;;;5049183;28;20728;-76
2022/04/18 10:01:07;;;;;;;4.25;2.63;;;;;;;;;;5045497;28;20257;-75
2022/04/18 10:03:37;;;;;;;2.85;2.22;;;;;;;;;;5044505;28;20237;-75
2022/04/18 10:06:06;;;;;;;4.50;3.30;;;;;;;;;;5054311;28;20199;-75
2022/04/18 10:08:35;;;;;;;4.07;3.50;;;;;;;;;;5038552;28;20230;-75
2022/04/18 10:11:04;;;;;;;5.10;3.30;;;;;;;;;;5044255;28;20199;-75
2022/04/18 10:13:34;;;;;;;4.72;3.55;;;;;;;;;;5047301;28;20200;-74
2022/04/18 10:16:03;;;;;;;4.07;3.35;;;;;;;;;;5055542;28;20214;-75
2022/04/18 10:18:35;;;;;;;3.40;3.10;;;;;;;;;;5045613;28;20233;-75
2022/04/18 10:21:21;;;;;;;3.25;2.28;;;;;;;;;;5054481;28;20261;-76
2022/04/18 10:24:17;;;;;;;3.10;2.45;;;;;;;;;;5051666;28;20203;-75
2022/04/18 10:27:13;;;;;;;4.50;2.47;;;;;;;;;;5038666;28;20609;-75
2022/04/18 10:29:43;;;;;;;3.05;2.60;;;;;;;;;;5051795;28;20199;-76
2022/04/18 10:32:13;;;;;;;2.97;2.60;;;;;;;;;;5042133;28;20231;-76
2022/04/18 10:34:43;;;;;;;3.28;2.78;;;;;;;;;;5051002;28;20237;-75
2022/04/18 10:37:17;;;;;;;3.28;2.97;;;;;;;;;;5045873;28;20230;-75
2022/04/18 10:39:59;;;;;;;3.78;2.88;;;;;;;;;;5036112;28;20713;-74
2022/04/18 10:42:31;;;;;;;4.95;3.00;;;;;;;;;;5048434;28;20218;-75
2022/04/18 10:45:00;;;;;;;3.80;2.60;;;;;;;;;;5045064;28;20241;-75
2022/04/18 10:47:44;;;;;;;2.97;2.67;;;;;;;;;;5050767;28;20234;-75
2022/04/18 10:50:20;;;;;;;3.40;3.03;;;;;;;;;;5045025;28;20199;-74
2022/04/18 10:53:08;;;;;;;4.75;2.95;;;;;;;;;;5048987;28;20207;-74
2022/04/18 10:55:37;;;;;;;4.18;2.95;;;;;;;;;;5051702;28;20218;-75
2022/04/18 10:58:15;;;;;;;3.72;2.80;;;;;;;;;;5053529;28;20277;-75
2022/04/18 11:00:51;;;;;;;3.30;2.67;;;;;;;;;;5045718;28;20199;-75
2022/04/18 11:03:35;;;;;;;3.45;2.97;;;;;;;;;;5051099;28;20684;-74
2022/04/18 11:06:05;;;;;;;3.72;3.13;;;;;;;;;;5050027;28;20199;-76
2022/04/18 11:08:36;;;;;;;3.33;2.72;;;;;;;;;;5048287;28;20637;-75
2022/04/18 11:11:05;;;;;;;3.53;2.90;;;;;;;;;;5052005;28;21942;-75
2022/04/18 11:13:34;;;;;;;3.13;2.60;;;;;;;;;;5043326;28;20207;-74
2022/04/18 11:16:21;;;;;;;3.40;3.10;;;;;;;;;;5052189;28;20261;-75
2022/04/18 11:19:12;;;;;;;3.42;2.80;;;;;;;;;;5051358;28;20222;-76
2022/04/18 11:21:59;;;;;;;3.30;2.92;;;;;;;;;;5055168;28;20210;-73
2022/04/18 11:24:36;;;;;;;3.63;2.92;;;;;;;;;;5052370;28;20207;-75
2022/04/18 11:27:06;;;;;;;3.78;2.78;;;;;;;;;;5054358;28;20704;-75
2022/04/18 11:29:35;;;;;;;3.72;2.78;;;;;;;;;;5047941;28;20261;-74
2022/04/18 11:32:04;;;;;;;3.55;2.70;;;;;;;;;;5052785;28;20203;-75
2022/04/18 11:34:33;;;;;;;3.30;2.78;;;;;;;;;;5050591;28;20230;-76
2022/04/18 11:37:02;;;;;;;3.35;3.05;;;;;;;;;;5045380;28;20232;-75
2022/04/18 11:39:45;;;;;;;2.80;2.55;;;;;;;;;;5050740;28;20203;-75
2022/04/18 11:42:17;;;;;;;3.45;2.83;;;;;;;;;;5046533;28;20215;-74
2022/04/18 11:44:46;;;;;;;4.93;2.90;;;;;;;;;;5049176;28;20207;-75
2022/04/18 11:47:16;;;;;;;2.97;2.70;;;;;;;;;;5051839;28;20619;-75
2022/04/18 11:49:45;;;;;;;3.40;2.95;;;;;;;;;;5052758;28;20193;-74
2022/04/18 11:52:20;;;;;;;3.80;2.88;;;;;;;;;;5053335;28;20206;-75
2022/04/18 11:54:57;;;;;;;3.00;2.60;;;;;;;;;;5040466;28;20261;-75
2022/04/18 11:57:26;;;;;;;2.72;2.53;;;;;;;;;;5053755;28;20299;-74
2022/04/18 11:59:55;;;;;;;3.47;2.53;;;;;;;;;;5053389;28;20199;-75
2022/04/18 12:08:02;;;;;;;3.88;2.97;;;;;;;;;;5014608;28;20268;-74
2022/04/18 12:10:35;;;;;;;3.08;2.70;;;;;;;;;;5043670;28;20663;-75
2022/04/18 12:13:06;;;;;;;3.95;2.88;;;;;;;;;;5044211;28;20199;-75
2022/04/18 12:15:35;;;;;;;3.35;2.95;;;;;;;;;;5039382;28;20214;-75
2022/04/18 12:18:12;;;;;;;2.53;2.33;;;;;;;;;;5052556;28;20231;-73
2022/04/18 12:20:44;;;;;;;2.92;2.50;;;;;;;;;;5052777;28;20575;-75
2022/04/18 12:23:16;;;;;;;2.70;2.35;;;;;;;;;;5052582;28;20199;-75
2022/04/18 12:25:47;;;;;;;3.45;2.70;;;;;;;;;;5048772;28;20669;-75
2022/04/18 12:28:16;;;;;;;3.75;2.50;;;;;;;;;;5051194;28;20219;-76
2022/04/18 12:30:45;;;;;;;3.83;2.50;;;;;;;;;;5051795;28;20209;-75
2022/04/18 12:33:16;;;;;;;3.00;2.22;;;;;;;;;;5059621;28;20265;-75
2022/04/18 12:35:48;;;;;;;2.80;2.42;;;;;;;;;;4697300;28;10000432;-74
2022/04/18 12:38:17;;;;;;;2.90;2.55;;;;;;;;;;5046024;28;20672;-75
2022/04/18 12:40:48;;;;;;;2.58;2.38;;;;;;;;;;5048098;28;20258;-75
2022/04/18 12:43:17;;;;;;;3.70;2.63;;;;;;;;;;5049827;28;20215;-75
2022/04/18 12:45:53;;;;;;;5.10;2.75;;;;;;;;;;5049060;28;20252;-75
2022/04/18 12:48:25;;;;;;;2.72;2.35;;;;;;;;;;5046428;28;20280;-75
2022/04/18 12:50:54;;;;;;;3.92;2.60;;;;;;;;;;5047988;28;20199;-75
2022/04/18 12:53:23;;;;;;;2.95;2.65;;;;;;;;;;5040260;28;20673;-75
2022/04/18 12:56:06;;;;;;;3.22;2.80;;;;;;;;;;5048523;28;20290;-75
2022/04/18 12:58:39;;;;;;;2.70;2.40;;;;;;;;;;5040070;28;20284;-74
2022/04/18 13:01:08;;;;;;;3.55;2.83;;;;;;;;;;5040074;28;20207;-74
2022/04/18 13:03:43;;;;;;;3.13;2.63;;;;;;;;;;5043228;28;20202;-75
2022/04/18 13:06:11;;;;;;;3.50;2.50;;;;;;;;;;5058720;28;20195;-75
2022/04/18 13:08:40;;;;;;;3.08;2.35;;;;;;;;;;5060465;28;20224;-76
2022/04/18 13:11:10;;;;;;;2.92;2.63;;;;;;;;;;5045171;28;20720;-75
2022/04/18 13:13:39;;;;;;;3.03;2.72;;;;;;;;;;5048260;28;20229;-75
2022/04/18 13:16:23;;;;;;;3.25;2.90;;;;;;;;;;5050077;28;20207;-75
2022/04/18 13:19:00;;;;;;;3.03;2.72;;;;;;;;;;5050261;28;20227;-75
2022/04/18 13:21:29;;;;;;;3.75;3.08;;;;;;;;;;5048245;28;20537;-76
2022/04/18 13:23:58;;;;;;;4.00;3.10;;;;;;;;;;5049080;28;20211;-75
2022/04/18 13:26:31;;;;;;;3.10;2.80;;;;;;;;;;5031784;28;20239;-75
2022/04/18 13:28:59;;;;;;;3.42;3.05;;;;;;;;;;5049135;28;20192;-75
2022/04/18 13:31:28;;;;;;;2.80;2.60;;;;;;;;;;5038283;28;20200;-75
2022/04/18 13:33:57;;;;;;;3.33;2.72;;;;;;;;;;5036656;28;20207;-75
2022/04/18 13:36:33;;;;;;;3.58;3.20;;;;;;;;;;5033879;28;20199;-75
2022/04/18 13:39:02;;;;;;;3.70;3.17;;;;;;;;;;5049751;28;20215;-75
2022/04/18 13:41:32;;;;;;;3.88;3.35;;;;;;;;;;5050612;28;20215;-75
2022/04/18 13:44:00;;;;;;;3.83;3.30;;;;;;;;;;5039704;28;20213;-76
2022/04/18 13:46:29;;;;;;;4.28;3.28;;;;;;;;;;5053756;28;20908;-75
2022/04/18 13:48:59;;;;;;;3.63;3.30;;;;;;;;;;5036197;28;20207;-75
2022/04/18 13:51:30;;;;;;;3.80;3.35;;;;;;;;;;5048895;28;20658;-75
2022/04/18 13:53:58;;;;;;;4.00;3.00;;;;;;;;;;5055209;28;20246;-75
2022/04/18 13:56:28;;;;;;;3.60;2.72;;;;;;;;;;5039954;28;20256;-75
2022/04/18 13:58:58;;;;;;;4.05;3.28;;;;;;;;;;5036827;28;20235;-75
2022/04/18 14:01:27;;;;;;;3.53;3.22;;;;;;;;;;5048483;28;20195;-76
2022/04/18 14:03:56;;;;;;;4.50;4.10;;;;;;;;;;5051247;28;20289;-74
2022/04/18 14:06:26;;;;;;;5.75;4.07;;;;;;;;;;5056151;28;20252;-76
2022/04/18 14:08:56;;;;;;;4.40;3.97;;;;;;;;;;5056743;28;20303;-75
2022/04/18 14:11:27;;;;;;;4.53;3.80;;;;;;;;;;5055934;28;20210;-75
2022/04/18 14:13:55;;;;;;;6.22;4.50;;;;;;;;;;5044770;28;20207;-76
2022/04/18 14:21:57;;;;;;;5.25;4.47;;;;;;;;;;5051504;28;20206;-75
2022/04/18 14:24:26;;;;;;;6.97;4.88;;;;;;;;;;5043411;28;20222;-76
2022/04/18 14:26:54;;;;;;;6.88;4.13;;;;;;;;;;5038949;28;20220;-75
2022/04/18 14:29:23;;;;;;;6.72;4.55;;;;;;;;;;5047342;28;20531;-75
2022/04/18 14:31:52;;;;;;;6.63;5.30;;;;;;;;;;5055894;28;20211;-75
2022/04/18 14:34:21;;;;;;;6.18;5.50;;;;;;;;;;5056448;28;20211;-75
2022/04/18 14:36:49;;;;;;;5.20;4.70;;;;;;;;;;5052034;28;20611;-76
2022/04/18 14:39:18;;;;;;;6.05;5.03;;;;;;;;;;5057421;28;20227;-75
2022/04/18 14:41:46;;;;;;;5.47;4.82;;;;;;;;;;5056460;28;20291;-75
2022/04/18 14:44:15;;;;;;;5.40;4.88;;;;;;;;;;5056671;28;20217;-75
2022/04/18 14:46:43;;;;;;;5.95;5.35;;;;;;;;;;5055756;28;20713;-75
2022/04/18 14:49:13;;;;;;;7.15;5.60;;;;;;;;;;5056607;28;20293;-76
2022/04/18 14:51:41;;;;;;;7.55;5.53;;;;;;;;;;5055653;28;20210;-75
2022/04/18 14:54:10;;;;;;;6.65;5.45;;;;;;;;;;5056275;28;20207;-76
2022/04/18 14:56:38;;;;;;;6.90;5.95;;;;;;;;;;5056722;28;20207;-75
2022/04/18 14:59:07;;;;;;;6.53;5.18;;;;;;;;;;5053153;28;20272;-75
2022/04/18 15:01:36;;;;;;;6.82;6.15;;;;;;;;;;5052756;28;20211;-75
2022/04/18 15:04:05;;;;;;;7.45;6.25;;;;;;;;;;5051238;28;20214;-75
2022/04/18 15:06:35;;;;;;;6.82;6.22;;;;;;;;;;5052441;28;20224;-76
2022/04/18 15:09:03;;;;;;;8.27;6.35;;;;;;;;;;5052864;28;20222;-76
2022/04/18 15:11:33;;;;;;;7.15;6.15;;;;;;;;;;5053054;28;20211;-76
2022/04/18 15:14:02;;;;;;;6.32;5.72;;;;;;;;;;5035142;28;20203;-76
2022/04/18 15:16:31;;;;;;;7.55;6.10;;;;;;;;;;5032602;28;20269;-74
2022/04/18 15:19:00;;;;;;;6.85;6.15;;;;;;;;;;5032205;28;20258;-76
2022/04/18 15:21:29;;;;;;;6.85;6.22;;;;;;;;;;5043386;28;20272;-75
2022/04/18 15:24:02;;;;;;;8.45;6.38;;;;;;;;;;5051443;28;20205;-75
2022/04/18 15:26:31;;;;;;;7.20;6.50;;;;;;;;;;5052788;28;20199;-76
2022/04/18 15:28:59;;;;;;;6.20;5.60;;;;;;;;;;5052985;28;20256;-75